Genoa City, Wisconsin
Current Conditions -  °F | °C
As of 9:55 PM on Thursday 18 Dec 2014 (Local Time) from KBUU Reporting Station
Overcast Overcast  
Wind Chill: 20°   Ceiling: 2000
Heat Index: 26°   Visibility: 10mi
Dew Point: 23°   Wind: 5mph
Humidity: 89%   Direction: 360°N
Pressure: 30.25"   Gusts: NA
Location:  42.5°N, 88.33°W
Report Text: KBUU 190355Z AUTO 36004KT 10SM OVC020 M03/M05 A3025 RMK AO2 T10351050
Loading
Personal Weather Stations






























Interactive Weather Map New forecast layout! Learn more

10-Day Weather Forecast

Advertisements
Track Severe Weather on mobile